Cheshire, Connecticut
Current Conditions -  °F | °C
As of 7:53 AM on Wednesday 22 Oct 2014 (Local Time) from KMMK Reporting Station
Overcast Overcast  
Wind Chill: 53°   Ceiling: 1400
Heat Index: 53°   Visibility: 10mi
Dew Point: 47°   Wind: 13mph
Humidity: 80%   Direction: 10°N
Pressure: 29.96"   Gusts: NA
Location:  41.5°N, 72.9°W
Report Text: KMMK 221153Z AUTO 01011KT 10SM OVC014 12/08 A2996 RMK AO2 SLP146 70002 T01170083 10128 20117 53010 TSNO
Loading
Personal Weather Stations






























Interactive Weather Map New forecast layout! Learn more

10-Day Weather Forecast

Advertisements
Track Severe Weather on mobile